createdAt,value
2022-11-20T00:00:18.189Z,3.47
2022-11-20T00:02:44.845Z,3.33
2022-11-20T00:05:11.623Z,3.78
2022-11-20T00:07:38.382Z,2.92
2022-11-20T00:10:05.463Z,3.50
2022-11-20T00:12:32.636Z,3.03
2022-11-20T00:14:59.337Z,4.13
2022-11-20T00:17:26.016Z,3.72
2022-11-20T00:19:52.705Z,4.28
2022-11-20T00:22:19.356Z,3.92
2022-11-20T00:24:46.018Z,4.50
2022-11-20T00:27:12.721Z,4.32
2022-11-20T00:29:39.386Z,6.60
2022-11-20T00:32:06.065Z,5.72
2022-11-20T00:34:32.796Z,5.78
2022-11-20T00:36:59.438Z,5.40
2022-11-20T00:39:26.126Z,5.80
2022-11-20T00:41:52.793Z,4.40
2022-11-20T00:44:19.506Z,4.80
2022-11-20T00:46:46.161Z,6.88
2022-11-20T00:49:12.884Z,8.85
2022-11-20T00:51:39.602Z,5.35
2022-11-20T00:54:06.266Z,5.53
2022-11-20T00:56:32.907Z,5.90
2022-11-20T00:59:02.024Z,4.25
2022-11-20T01:01:30.301Z,3.72
2022-11-20T01:04:00.139Z,4.28
2022-11-20T01:06:29.831Z,4.28
2022-11-20T01:08:58.875Z,3.63
2022-11-20T01:11:33.797Z,4.13
2022-11-20T01:14:02.815Z,4.35
2022-11-20T01:16:32.729Z,4.38
2022-11-20T01:19:01.592Z,4.43
2022-11-20T01:21:31.012Z,3.10
2022-11-20T01:23:58.192Z,5.40
2022-11-20T01:26:28.093Z,4.90
2022-11-20T01:28:55.749Z,4.05
2022-11-20T01:31:27.840Z,4.93
2022-11-20T01:34:00.071Z,4.60
2022-11-20T01:36:28.689Z,4.57
2022-11-20T01:39:01.037Z,3.65
2022-11-20T01:41:48.194Z,3.60
2022-11-20T01:44:17.085Z,3.83
2022-11-20T01:47:03.256Z,3.17
2022-11-20T01:49:46.698Z,3.40
2022-11-20T01:52:20.911Z,3.42
2022-11-20T01:55:01.448Z,3.50
2022-11-20T01:57:30.697Z,3.25
2022-11-20T02:00:06.841Z,3.35
2022-11-20T02:02:33.994Z,4.63
2022-11-20T02:05:19.048Z,3.75
2022-11-20T02:07:46.752Z,3.10
2022-11-20T02:10:13.718Z,3.42
2022-11-20T02:12:58.939Z,3.45
2022-11-20T02:15:30.113Z,2.85
2022-11-20T02:17:57.447Z,3.22
2022-11-20T02:20:24.351Z,3.45
2022-11-20T02:22:59.627Z,3.30
2022-11-20T02:25:27.904Z,3.85
2022-11-20T02:27:55.942Z,4.50
2022-11-20T02:30:22.775Z,3.58
2022-11-20T02:32:51.818Z,4.85
2022-11-20T02:35:21.231Z,4.57
2022-11-20T02:37:50.766Z,4.10
2022-11-20T02:40:18.065Z,3.92
2022-11-20T02:42:44.818Z,4.22
2022-11-20T02:45:13.518Z,3.75
2022-11-20T02:47:40.434Z,3.63
2022-11-20T02:50:07.275Z,4.88
2022-11-20T02:52:34.157Z,4.30
2022-11-20T02:55:01.687Z,4.43
2022-11-20T02:57:28.945Z,4.22
2022-11-20T02:59:55.685Z,3.92
2022-11-20T03:02:22.545Z,4.45
2022-11-20T03:04:49.215Z,3.58
2022-11-20T03:07:16.824Z,3.78
2022-11-20T03:09:43.522Z,6.25
2022-11-20T03:12:10.265Z,4.05
2022-11-20T03:14:36.994Z,3.95
2022-11-20T03:17:05.290Z,3.03
2022-11-20T03:19:32.065Z,2.92
2022-11-20T03:21:58.822Z,2.83
2022-11-20T03:24:25.678Z,2.50
2022-11-20T03:26:52.421Z,3.20
2022-11-20T03:29:19.692Z,3.17
2022-11-20T03:31:46.594Z,2.80
2022-11-20T03:34:13.751Z,3.35
2022-11-20T03:36:41.909Z,3.55
2022-11-20T03:39:09.343Z,3.30
2022-11-20T03:41:40.876Z,3.25
2022-11-20T03:44:10.417Z,3.03
2022-11-20T03:46:37.551Z,3.47
2022-11-20T03:49:05.134Z,2.70
2022-11-20T03:51:34.505Z,2.97
2022-11-20T03:54:03.603Z,2.95
2022-11-20T03:56:33.282Z,2.38
2022-11-20T03:59:00.052Z,2.90
2022-11-20T04:01:32.223Z,3.00
2022-11-20T04:03:59.469Z,3.20
2022-11-20T04:06:28.798Z,2.47
2022-11-20T04:08:56.889Z,2.83
2022-11-20T04:11:29.762Z,2.92
2022-11-20T04:13:58.842Z,3.08
2022-11-20T04:16:26.952Z,2.58
2022-11-20T04:18:58.069Z,2.13
2022-11-20T04:21:25.502Z,3.28
2022-11-20T04:23:56.464Z,2.88
2022-11-20T04:26:24.868Z,3.30
2022-11-20T04:28:51.715Z,2.85
2022-11-20T04:31:20.829Z,3.13
2022-11-20T04:33:47.577Z,3.42
2022-11-20T04:36:16.686Z,3.00
2022-11-20T04:38:43.644Z,2.72
2022-11-20T04:41:18.390Z,2.63
2022-11-20T04:44:00.304Z,2.33
2022-11-20T04:46:28.620Z,2.47
2022-11-20T04:48:55.863Z,2.97
2022-11-20T04:51:23.205Z,3.00
2022-11-20T04:53:49.870Z,2.80
2022-11-20T04:56:17.074Z,2.75
2022-11-20T04:58:44.519Z,2.45
2022-11-20T05:01:22.827Z,2.45
2022-11-20T05:03:50.044Z,2.60
2022-11-20T05:06:19.300Z,2.03
2022-11-20T05:08:46.029Z,2.35
2022-11-20T05:11:15.166Z,2.33
2022-11-20T05:13:42.118Z,2.45
2022-11-20T05:16:12.184Z,2.50
2022-11-20T05:18:39.513Z,2.22
2022-11-20T05:21:07.557Z,2.40
2022-11-20T05:23:34.742Z,2.70
2022-11-20T05:26:02.271Z,2.30
2022-11-20T05:28:30.420Z,1.77
2022-11-20T05:30:57.453Z,2.20
2022-11-20T05:33:24.112Z,2.53
2022-11-20T05:35:50.803Z,1.63
2022-11-20T05:38:17.497Z,2.30
2022-11-20T05:40:44.286Z,2.63
2022-11-20T05:43:10.973Z,1.77
2022-11-20T05:45:37.643Z,2.80
2022-11-20T05:48:04.532Z,2.05
2022-11-20T05:50:31.235Z,2.13
2022-11-20T05:53:01.138Z,1.90
2022-11-20T05:55:28.587Z,1.80
2022-11-20T05:57:56.184Z,1.92
2022-11-20T06:00:23.264Z,2.30
2022-11-20T06:02:50.247Z,1.92
2022-11-20T06:05:17.187Z,1.65
2022-11-20T06:07:43.919Z,1.88
2022-11-20T06:10:11.357Z,2.08
2022-11-20T06:12:38.181Z,1.67
2022-11-20T06:15:06.110Z,2.08
2022-11-20T06:17:32.863Z,2.13
2022-11-20T06:19:59.556Z,2.10
2022-11-20T06:22:26.233Z,2.30
2022-11-20T06:24:52.924Z,2.35
2022-11-20T06:27:19.802Z,2.53
2022-11-20T06:29:46.544Z,1.73
2022-11-20T06:32:13.229Z,2.00
2022-11-20T06:34:40.092Z,2.20
2022-11-20T06:37:06.802Z,2.35
2022-11-20T06:39:33.523Z,2.15
2022-11-20T06:42:00.173Z,2.22
2022-11-20T06:44:27.065Z,2.13
2022-11-20T06:46:53.762Z,2.03
2022-11-20T06:49:20.910Z,2.38
2022-11-20T06:51:47.978Z,1.95
2022-11-20T06:54:14.637Z,2.03
2022-11-20T06:56:41.367Z,2.40
2022-11-20T06:59:08.799Z,2.13
2022-11-20T07:01:36.039Z,2.10
2022-11-20T07:04:03.933Z,2.05
2022-11-20T07:06:31.071Z,2.25
2022-11-20T07:08:58.262Z,2.55
2022-11-20T07:11:25.357Z,2.92
2022-11-20T07:13:52.279Z,2.38
2022-11-20T07:16:19.186Z,2.00
2022-11-20T07:18:50.244Z,2.40
2022-11-20T07:21:18.494Z,1.92
2022-11-20T07:23:45.224Z,2.70
2022-11-20T07:29:52.949Z,1.85
2022-11-20T07:32:19.695Z,2.13
2022-11-20T07:34:47.374Z,1.58
2022-11-20T07:37:14.522Z,2.35
2022-11-20T07:39:41.483Z,2.25
2022-11-20T07:42:09.069Z,2.03
2022-11-20T07:44:36.077Z,2.00
2022-11-20T07:47:02.947Z,1.75
2022-11-20T07:49:29.612Z,1.65
2022-11-20T07:51:59.342Z,1.60
2022-11-20T07:54:29.888Z,1.85
2022-11-20T07:56:56.644Z,1.88
2022-11-20T07:59:23.697Z,1.90
2022-11-20T08:01:50.955Z,1.92
2022-11-20T08:04:17.775Z,1.80
2022-11-20T08:06:44.510Z,2.05
2022-11-20T08:09:11.498Z,2.00
2022-11-20T08:11:56.830Z,2.05
2022-11-20T08:14:23.532Z,1.73
2022-11-20T08:16:51.019Z,2.10
2022-11-20T08:19:19.895Z,2.17
2022-11-20T08:21:47.332Z,2.22
2022-11-20T08:24:14.144Z,2.08
2022-11-20T08:26:41.965Z,2.20
2022-11-20T08:29:08.685Z,2.00
2022-11-20T08:31:35.912Z,2.78
2022-11-20T08:34:07.697Z,1.85
2022-11-20T08:36:36.427Z,1.80
2022-11-20T08:39:03.878Z,1.92
2022-11-20T08:41:33.905Z,2.28
2022-11-20T08:44:03.086Z,1.93
2022-11-20T08:46:40.328Z,1.60
2022-11-20T08:49:08.502Z,2.75
2022-11-20T08:51:35.984Z,2.47
2022-11-20T08:54:02.918Z,2.35
2022-11-20T08:56:29.761Z,2.00
2022-11-20T09:01:43.249Z,1.60
2022-11-20T09:04:09.931Z,1.85
2022-11-20T09:06:36.632Z,1.95
2022-11-20T09:11:51.059Z,1.92
2022-11-20T09:14:17.796Z,1.83
2022-11-20T09:16:46.878Z,3.13
2022-11-20T09:19:34.543Z,2.20
2022-11-20T09:22:01.015Z,1.60
2022-11-20T09:24:28.912Z,2.00
2022-11-20T09:26:55.672Z,2.35
2022-11-20T09:29:22.789Z,1.65
2022-11-20T09:31:49.904Z,2.33
2022-11-20T09:34:17.024Z,1.83
2022-11-20T09:36:43.682Z,2.08
2022-11-20T09:39:10.339Z,1.55
2022-11-20T09:41:39.997Z,1.65
2022-11-20T09:44:12.224Z,1.95
2022-11-20T09:47:11.396Z,1.90
2022-11-20T09:49:52.954Z,1.60
2022-11-20T09:52:42.519Z,1.67
2022-11-20T09:55:14.644Z,1.60
2022-11-20T09:57:45.928Z,1.25
2022-11-20T10:00:15.257Z,1.63
2022-11-20T10:03:07.407Z,1.75
2022-11-20T10:05:40.487Z,1.92
2022-11-20T10:08:22.622Z,2.50
2022-11-20T10:11:17.145Z,1.85
2022-11-20T10:14:14.764Z,1.85
2022-11-20T10:17:06.632Z,2.03
2022-11-20T10:19:48.705Z,1.85
2022-11-20T10:22:45.536Z,1.70
2022-11-20T10:25:23.619Z,2.08
2022-11-20T10:28:57.186Z,2.35
2022-11-20T10:31:38.219Z,1.33
2022-11-20T10:34:29.629Z,1.95
2022-11-20T10:37:12.176Z,1.55
2022-11-20T10:40:13.759Z,1.23
2022-11-20T10:42:52.537Z,1.35
2022-11-20T10:45:25.178Z,1.40
2022-11-20T10:47:53.952Z,1.60
2022-11-20T10:50:22.975Z,1.67
2022-11-20T10:53:20.595Z,1.73
2022-11-20T10:56:06.024Z,1.40
2022-11-20T10:59:01.403Z,0.90
2022-11-20T11:01:28.234Z,1.33
2022-11-20T11:03:58.087Z,1.42
2022-11-20T11:06:49.189Z,1.80
2022-11-20T11:11:45.170Z,1.00
2022-11-20T11:14:16.426Z,1.20
2022-11-20T11:17:00.290Z,1.20
2022-11-20T11:19:27.400Z,1.20
2022-11-20T11:21:58.441Z,1.50
2022-11-20T11:24:45.744Z,1.50
2022-11-20T11:27:18.510Z,1.60
2022-11-20T11:29:46.894Z,1.05
2022-11-20T11:32:22.249Z,1.20
2022-11-20T11:35:07.501Z,1.80
2022-11-20T11:37:36.920Z,1.40
2022-11-20T11:42:57.763Z,1.50
2022-11-20T11:45:24.962Z,1.55
2022-11-20T11:47:53.062Z,1.42
2022-11-20T11:50:25.790Z,1.30
2022-11-20T11:53:00.880Z,1.75
2022-11-20T11:55:32.716Z,1.00
2022-11-20T11:58:44.337Z,1.58
2022-11-20T12:01:50.288Z,0.93
2022-11-20T12:04:47.187Z,1.20
2022-11-20T12:09:53.639Z,1.58
2022-11-20T12:12:28.377Z,1.50
2022-11-20T12:14:57.118Z,1.55
2022-11-20T12:17:25.204Z,1.17
2022-11-20T12:19:52.662Z,1.38
2022-11-20T12:22:52.633Z,1.27
2022-11-20T12:25:27.261Z,2.70
2022-11-20T12:28:18.957Z,1.50
2022-11-20T12:31:26.964Z,1.70
2022-11-20T12:34:19.776Z,3.13
2022-11-20T12:36:54.197Z,2.92
2022-11-20T12:39:43.622Z,2.05
2022-11-20T12:42:41.250Z,1.65
2022-11-20T12:45:19.092Z,1.92
2022-11-20T12:48:23.619Z,1.80
2022-11-20T12:51:35.592Z,2.10
2022-11-20T12:54:26.925Z,3.63
2022-11-20T12:57:11.711Z,3.22
2022-11-20T13:00:09.124Z,2.67
2022-11-20T13:03:17.788Z,3.03
2022-11-20T13:05:52.174Z,6.53
2022-11-20T13:08:24.304Z,6.55
2022-11-20T13:11:10.844Z,4.10
2022-11-20T13:14:23.102Z,9.35
2022-11-20T13:17:06.048Z,6.10
2022-11-20T13:19:33.968Z,6.13
2022-11-20T13:22:02.171Z,5.82
2022-11-20T13:24:31.552Z,8.18
2022-11-20T13:27:06.255Z,8.15
2022-11-20T13:29:35.297Z,6.35
2022-11-20T13:32:14.461Z,2.08
2022-11-20T13:34:58.819Z,4.20
2022-11-20T13:37:27.828Z,3.58
2022-11-20T13:40:05.342Z,3.97
2022-11-20T13:42:36.206Z,5.78
2022-11-20T13:47:30.989Z,5.55
2022-11-20T13:50:00.287Z,5.47
2022-11-20T13:52:55.873Z,3.30
2022-11-20T13:55:36.237Z,1.80
2022-11-20T13:58:08.690Z,2.10
2022-11-20T14:00:48.042Z,2.03
2022-11-20T14:03:51.193Z,2.63
2022-11-20T14:06:35.678Z,17.23
2022-11-20T14:09:02.640Z,2.70
2022-11-20T14:11:31.148Z,2.00
2022-11-20T14:14:06.392Z,1.90
2022-11-20T14:16:36.358Z,4.15
2022-11-20T14:19:21.469Z,2.07
2022-11-20T14:21:54.202Z,3.22
2022-11-20T14:24:25.652Z,2.78
2022-11-20T14:26:53.472Z,2.97
2022-11-20T14:29:29.472Z,1.45
2022-11-20T14:31:57.515Z,1.60
2022-11-20T14:34:29.956Z,1.65
2022-11-20T14:37:05.781Z,7.20
2022-11-20T14:39:43.643Z,3.70
2022-11-20T14:42:21.320Z,1.40
2022-11-20T14:44:49.646Z,2.15
2022-11-20T14:47:23.480Z,10.82
2022-11-20T14:49:52.649Z,4.28
2022-11-20T14:52:24.557Z,2.97
2022-11-20T14:54:56.478Z,3.30
2022-11-20T14:57:35.427Z,2.42
2022-11-20T15:00:14.260Z,2.38
2022-11-20T15:02:48.800Z,3.65
2022-11-20T15:05:17.740Z,2.08
2022-11-20T15:07:47.504Z,2.15
2022-11-20T15:10:22.614Z,3.30
2022-11-20T15:13:00.915Z,2.03
2022-11-20T15:15:51.860Z,1.88
2022-11-20T15:18:22.280Z,1.17
2022-11-20T15:20:49.510Z,1.23
2022-11-20T15:23:19.503Z,1.48
2022-11-20T15:25:47.254Z,1.53
2022-11-20T15:28:21.752Z,1.85
2022-11-20T15:30:50.296Z,1.80
2022-11-20T15:33:18.025Z,2.20
2022-11-20T15:35:44.939Z,2.10
2022-11-20T15:38:11.643Z,1.70
2022-11-20T15:40:38.298Z,1.80
2022-11-20T15:43:11.344Z,3.03
2022-11-20T15:45:41.151Z,1.92
2022-11-20T15:48:14.698Z,1.80
2022-11-20T15:51:12.428Z,1.70
2022-11-20T15:53:40.054Z,1.40
2022-11-20T15:56:07.567Z,1.98
2022-11-20T15:58:34.244Z,4.22
2022-11-20T16:01:01.018Z,3.05
2022-11-20T16:03:27.711Z,1.50
2022-11-20T16:05:54.364Z,1.92
2022-11-20T16:08:21.041Z,2.65
2022-11-20T16:10:47.759Z,2.10
2022-11-20T16:13:35.659Z,2.13
2022-11-20T16:16:10.024Z,2.58
2022-11-20T16:18:36.675Z,1.75
2022-11-20T16:21:03.701Z,1.85
2022-11-20T16:23:30.531Z,2.03
2022-11-20T16:25:57.243Z,2.60
2022-11-20T16:28:24.014Z,2.80
2022-11-20T16:30:50.667Z,3.05
2022-11-20T16:33:18.264Z,4.72
2022-11-20T16:35:45.293Z,3.67
2022-11-20T16:38:12.091Z,2.60
2022-11-20T16:40:38.848Z,3.35
2022-11-20T16:43:14.476Z,2.70
2022-11-20T16:45:42.829Z,2.78
2022-11-20T16:48:13.704Z,1.70
2022-11-20T16:53:18.749Z,1.85
2022-11-20T16:55:45.897Z,2.00
2022-11-20T16:58:12.933Z,1.27
2022-11-20T17:00:40.637Z,1.15
2022-11-20T17:03:07.938Z,1.08
2022-11-20T17:05:35.450Z,2.03
2022-11-20T17:08:02.393Z,2.10
2022-11-20T17:10:29.068Z,1.83
2022-11-20T17:12:55.729Z,1.67
2022-11-20T17:15:22.493Z,1.92
2022-11-20T17:17:49.173Z,3.80
2022-11-20T17:20:15.821Z,4.60
2022-11-20T17:22:42.469Z,3.15
2022-11-20T17:25:09.299Z,2.65
2022-11-20T17:27:35.961Z,3.35
2022-11-20T17:30:02.701Z,2.60
2022-11-20T17:32:29.450Z,2.90
2022-11-20T17:34:56.461Z,5.05
2022-11-20T17:37:23.195Z,2.72
2022-11-20T17:39:49.863Z,2.40
2022-11-20T17:42:29.789Z,6.93
2022-11-20T17:44:58.756Z,3.73
2022-11-20T17:47:26.117Z,3.20
2022-11-20T17:49:53.602Z,3.90
2022-11-20T17:52:20.445Z,4.82
2022-11-20T17:54:47.174Z,5.40
2022-11-20T17:57:32.451Z,7.15
2022-11-20T17:59:59.166Z,6.65
2022-11-20T18:02:25.903Z,5.90
2022-11-20T18:04:52.601Z,5.22
2022-11-20T18:07:19.363Z,5.93
2022-11-20T18:09:46.079Z,5.45
2022-11-20T18:12:12.723Z,4.90
2022-11-20T18:14:39.405Z,5.45
2022-11-20T18:17:08.516Z,4.63
2022-11-20T18:19:42.595Z,5.10
2022-11-20T18:22:16.003Z,5.13
2022-11-20T18:24:43.183Z,4.15
2022-11-20T18:27:19.229Z,4.78
2022-11-20T18:29:48.640Z,5.00
2022-11-20T18:32:15.365Z,4.05
2022-11-20T18:34:42.014Z,3.60
2022-11-20T18:37:09.849Z,3.80
2022-11-20T18:39:36.921Z,4.13
2022-11-20T18:42:22.268Z,4.00
2022-11-20T18:44:51.954Z,6.70
2022-11-20T18:47:34.242Z,4.70
2022-11-20T18:50:01.884Z,3.40
2022-11-20T18:52:33.418Z,4.68
2022-11-20T18:55:01.615Z,4.07
2022-11-20T18:57:29.306Z,4.30
2022-11-20T19:00:02.144Z,4.10
2022-11-20T19:02:34.469Z,4.28
2022-11-20T19:05:05.261Z,3.20
2022-11-20T19:07:31.953Z,3.28
2022-11-20T19:10:03.426Z,3.22
2022-11-20T19:12:30.758Z,3.10
2022-11-20T19:14:57.947Z,3.03
2022-11-20T19:17:24.716Z,3.67
2022-11-20T19:19:52.120Z,3.90
2022-11-20T19:22:18.800Z,3.53
2022-11-20T19:24:45.945Z,3.08
2022-11-20T19:27:12.667Z,3.58
2022-11-20T19:29:39.725Z,3.47
2022-11-20T19:32:06.537Z,2.63
2022-11-20T19:34:33.341Z,2.42
2022-11-20T19:37:01.009Z,2.30
2022-11-20T19:39:27.860Z,2.72
2022-11-20T19:41:54.619Z,2.72
2022-11-20T19:44:21.329Z,3.00
2022-11-20T19:46:48.115Z,2.72
2022-11-20T19:49:15.329Z,3.22
2022-11-20T19:51:47.746Z,2.45
2022-11-20T19:54:15.149Z,3.00
2022-11-20T19:56:41.849Z,3.45
2022-11-20T19:59:08.626Z,3.00
2022-11-20T20:01:35.532Z,3.63
2022-11-20T20:04:03.610Z,3.00
2022-11-20T20:06:31.816Z,3.53
2022-11-20T20:09:18.836Z,3.70
2022-11-20T20:11:46.608Z,3.35
2022-11-20T20:14:15.664Z,4.10
2022-11-20T20:16:43.249Z,4.65
2022-11-20T20:19:15.100Z,4.70
2022-11-20T20:21:42.373Z,4.03
2022-11-20T20:24:10.624Z,4.53
2022-11-20T20:26:37.684Z,4.80
2022-11-20T20:29:04.601Z,5.60
2022-11-20T20:31:33.690Z,4.85
2022-11-20T20:34:00.943Z,7.10
2022-11-20T20:36:28.244Z,4.05
2022-11-20T20:38:56.793Z,3.97
2022-11-20T20:41:24.926Z,5.30
2022-11-20T20:44:11.318Z,3.60
2022-11-20T20:46:38.177Z,3.90
2022-11-20T20:49:05.545Z,6.28
2022-11-20T20:51:32.369Z,4.00
2022-11-20T20:53:59.633Z,3.90
2022-11-20T20:56:26.880Z,3.97
2022-11-20T20:58:53.774Z,4.60
2022-11-20T21:01:21.425Z,4.28
2022-11-20T21:03:48.200Z,3.20
2022-11-20T21:06:14.940Z,2.55
2022-11-20T21:08:44.252Z,2.38
2022-11-20T21:11:14.215Z,2.47
2022-11-20T21:13:42.977Z,2.60
2022-11-20T21:16:11.109Z,2.97
2022-11-20T21:18:37.904Z,2.35
2022-11-20T21:21:27.460Z,2.60
2022-11-20T21:23:54.218Z,2.50
2022-11-20T21:26:21.709Z,2.38
2022-11-20T21:28:49.929Z,2.70
2022-11-20T21:31:21.984Z,2.80
2022-11-20T21:33:50.723Z,2.60
2022-11-20T21:36:23.250Z,3.22
2022-11-20T21:38:51.757Z,2.72
2022-11-20T21:41:18.645Z,2.45
2022-11-20T21:43:45.720Z,2.63
2022-11-20T21:46:14.477Z,2.60
2022-11-20T21:48:43.270Z,2.58
2022-11-20T21:51:14.937Z,2.50
2022-11-20T21:53:42.949Z,2.83
2022-11-20T21:56:10.997Z,2.85
2022-11-20T21:58:38.953Z,2.60
2022-11-20T22:01:13.121Z,3.00
2022-11-20T22:03:40.103Z,2.70
2022-11-20T22:06:08.414Z,2.45
2022-11-20T22:08:36.357Z,2.40
2022-11-20T22:11:05.806Z,2.35
2022-11-20T22:13:51.512Z,2.30
2022-11-20T22:16:18.299Z,2.08
2022-11-20T22:18:49.967Z,2.30
2022-11-20T22:21:18.403Z,1.98
2022-11-20T22:23:45.077Z,1.80
2022-11-20T22:26:16.855Z,1.50
2022-11-20T22:28:46.393Z,1.42
2022-11-20T22:31:13.033Z,1.65
2022-11-20T22:33:39.769Z,1.30
2022-11-20T22:36:09.728Z,1.48
2022-11-20T22:38:39.440Z,1.60
2022-11-20T22:41:12.396Z,1.83
2022-11-20T22:43:40.122Z,1.33
2022-11-20T22:46:08.418Z,1.60
2022-11-20T22:48:37.095Z,1.55
2022-11-20T22:51:09.266Z,1.40
2022-11-20T22:53:36.477Z,1.10
2022-11-20T22:56:03.624Z,1.58
2022-11-20T22:58:31.493Z,1.52
2022-11-20T23:01:20.341Z,1.40
2022-11-20T23:03:49.632Z,1.38
2022-11-20T23:06:18.453Z,1.83
2022-11-20T23:08:46.252Z,1.65
2022-11-20T23:11:15.016Z,1.50
2022-11-20T23:13:42.435Z,1.33
2022-11-20T23:16:19.868Z,1.65
2022-11-20T23:18:46.640Z,2.40
2022-11-20T23:21:16.702Z,1.70
2022-11-20T23:23:47.237Z,2.30
2022-11-20T23:26:15.184Z,2.38
2022-11-20T23:28:42.381Z,1.98
2022-11-20T23:31:10.694Z,2.00
2022-11-20T23:33:39.614Z,1.90
2022-11-20T23:36:07.327Z,1.77
2022-11-20T23:38:34.557Z,2.05
2022-11-20T23:41:01.578Z,1.92
2022-11-20T23:43:28.587Z,1.63
2022-11-20T23:45:59.473Z,1.98
2022-11-20T23:50:54.540Z,2.10
2022-11-20T23:53:22.231Z,1.73
2022-11-20T23:55:51.036Z,1.33
2022-11-20T23:58:18.232Z,1.10
